createdAt,value
2023-04-18T15:48:27.138Z,14.90
2023-04-18T15:53:32.706Z,14.50
2023-04-18T15:58:37.982Z,14.40
2023-04-18T16:03:49.829Z,14.40
2023-04-18T16:08:55.547Z,14.40
2023-04-18T16:19:28.590Z,14.10
2023-04-18T16:24:52.683Z,13.90
2023-04-18T16:30:00.443Z,13.60
2023-04-18T16:35:17.443Z,13.50
2023-04-18T16:40:23.471Z,13.40
2023-04-18T16:45:36.111Z,13.30
2023-04-18T16:50:55.450Z,13.20
2023-04-18T16:55:59.335Z,13.10
2023-04-18T17:01:04.603Z,13.00
2023-04-18T17:06:09.779Z,12.90
2023-04-18T17:11:14.966Z,12.70
2023-04-18T17:16:23.183Z,12.60
2023-04-18T17:21:28.430Z,12.50
2023-04-18T17:26:35.368Z,12.40
2023-04-18T17:31:40.703Z,12.30
2023-04-18T17:36:45.923Z,12.20
2023-04-18T17:41:51.518Z,12.10
2023-04-18T17:46:56.854Z,12.00
2023-04-18T17:52:05.333Z,12.00
2023-04-18T17:57:11.402Z,11.90
2023-04-18T18:02:18.755Z,11.80
2023-04-18T18:07:24.120Z,11.80
2023-04-18T18:12:29.393Z,11.70
2023-04-18T18:17:34.888Z,11.60
2023-04-18T18:22:40.966Z,11.50
2023-04-18T18:27:46.841Z,11.40
2023-04-18T18:32:53.600Z,11.30
2023-04-18T18:37:58.942Z,11.20
2023-04-18T18:43:06.148Z,11.20
2023-04-18T18:48:13.382Z,11.10
2023-04-18T18:53:32.374Z,11.10
2023-04-18T18:58:39.617Z,11.00
2023-04-18T19:03:55.327Z,10.90
2023-04-18T19:09:00.688Z,10.80
2023-04-18T19:14:06.032Z,10.60
2023-04-18T19:19:11.445Z,10.50
2023-04-18T19:24:18.726Z,10.40
2023-04-18T19:29:24.338Z,10.30
2023-04-18T19:34:29.719Z,10.20
2023-04-18T19:39:35.018Z,10.10
2023-04-18T19:44:40.365Z,10.10
2023-04-18T19:49:45.573Z,10.10
2023-04-18T19:54:50.995Z,10.00
2023-04-18T19:59:57.390Z,9.90
2023-04-18T20:05:02.879Z,9.80
2023-04-18T20:10:12.133Z,9.70
2023-04-18T20:15:17.594Z,9.70
2023-04-18T20:20:22.849Z,9.50
2023-04-18T20:25:27.994Z,9.40
2023-04-18T20:30:35.498Z,9.30
2023-04-18T20:35:42.354Z,9.10
2023-04-18T20:40:47.483Z,9.00
2023-04-18T20:45:54.225Z,8.90
2023-04-18T20:50:59.564Z,8.80
2023-04-18T20:56:04.759Z,8.60
2023-04-18T21:01:09.994Z,8.60
2023-04-18T21:06:16.416Z,8.50
2023-04-18T21:11:21.702Z,8.40
2023-04-18T21:16:27.078Z,8.30
2023-04-18T21:21:34.292Z,8.30
2023-04-18T21:26:40.715Z,8.30
2023-04-18T21:31:47.423Z,8.20
2023-04-18T21:36:52.710Z,8.10
2023-04-18T21:41:58.123Z,8.00
2023-04-18T21:47:03.320Z,8.10
2023-04-18T21:52:09.153Z,7.90
2023-04-18T21:57:14.282Z,7.80
2023-04-18T22:02:19.454Z,7.80
2023-04-18T22:07:26.238Z,7.70
2023-04-18T22:12:33.037Z,7.70
2023-04-18T22:17:38.390Z,7.60
2023-04-18T22:22:43.792Z,7.60
2023-04-18T22:27:49.066Z,7.50
2023-04-18T22:32:54.774Z,7.50
2023-04-18T22:38:00.047Z,7.40
2023-04-18T22:43:05.342Z,7.30
2023-04-18T22:48:12.185Z,7.20
2023-04-18T22:53:18.525Z,7.10
2023-04-18T22:58:23.774Z,7.00
2023-04-18T23:03:29.118Z,7.00
2023-04-18T23:08:35.052Z,6.90
2023-04-18T23:13:41.479Z,6.90
2023-04-18T23:18:46.542Z,6.80
2023-04-18T23:23:51.720Z,6.80
2023-04-18T23:28:56.916Z,6.70
2023-04-18T23:34:02.123Z,6.70
2023-04-18T23:39:08.762Z,6.60
2023-04-18T23:44:14.275Z,6.60
2023-04-18T23:49:19.788Z,6.60
2023-04-18T23:54:24.851Z,6.50
2023-04-18T23:59:29.970Z,6.40
